createdAt,value
2022-08-11T00:01:28.023Z,4.30
2022-08-11T00:04:02.737Z,5.40
2022-08-11T00:06:39.340Z,6.10
2022-08-11T00:09:21.543Z,4.20
2022-08-11T00:11:53.315Z,5.40
2022-08-11T00:14:36.889Z,3.60
2022-08-11T00:17:16.315Z,5.10
2022-08-11T00:20:12.477Z,4.80
2022-08-11T00:22:41.823Z,3.70
2022-08-11T00:25:12.491Z,3.80
2022-08-11T00:27:41.650Z,5.60
2022-08-11T00:30:11.754Z,4.70
2022-08-11T00:32:45.142Z,5.00
2022-08-11T00:35:51.790Z,4.80
2022-08-11T00:38:04.701Z,5.40
2022-08-11T00:40:44.446Z,4.40
2022-08-11T00:43:44.997Z,3.40
2022-08-11T00:46:32.644Z,5.00
2022-08-11T00:49:11.953Z,4.10
2022-08-11T00:52:04.979Z,4.10
2022-08-11T00:54:38.856Z,4.60
2022-08-11T00:57:38.557Z,4.40
2022-08-11T01:00:25.534Z,4.60
2022-08-11T01:03:13.103Z,4.10
2022-08-11T01:06:07.876Z,4.90
2022-08-11T01:09:17.872Z,3.30
2022-08-11T01:11:56.360Z,4.70
2022-08-11T01:15:06.446Z,5.10
2022-08-11T01:18:28.534Z,6.00
2022-08-11T01:21:23.718Z,6.60
2022-08-11T01:24:15.672Z,4.80
2022-08-11T01:27:40.077Z,3.60
2022-08-11T01:31:03.934Z,5.50
2022-08-11T01:34:07.682Z,4.60
2022-08-11T01:36:53.609Z,5.40
2022-08-11T01:39:42.351Z,8.20
2022-08-11T01:43:05.259Z,7.00
2022-08-11T01:45:48.715Z,4.80
2022-08-11T01:48:45.161Z,3.90
2022-08-11T01:51:46.072Z,5.60
2022-08-11T01:54:41.047Z,4.10
2022-08-11T01:57:42.589Z,5.60
2022-08-11T02:00:16.709Z,5.10
2022-08-11T02:03:04.611Z,4.30
2022-08-11T02:06:02.407Z,5.70
2022-08-11T02:08:52.096Z,3.60
2022-08-11T02:11:37.866Z,4.00
2022-08-11T02:14:39.640Z,5.00
2022-08-11T02:17:50.663Z,4.50
2022-08-11T02:21:25.656Z,4.80
2022-08-11T02:24:05.990Z,5.20
2022-08-11T02:26:47.419Z,5.20
2022-08-11T02:29:23.357Z,4.60
2022-08-11T02:32:43.419Z,5.70
2022-08-11T02:35:13.123Z,6.30
2022-08-11T02:37:50.484Z,3.80
2022-08-11T02:40:38.401Z,4.10
2022-08-11T02:43:36.229Z,8.30
2022-08-11T02:46:37.381Z,7.20
2022-08-11T02:49:22.471Z,6.10
2022-08-11T02:52:01.157Z,4.10
2022-08-11T02:54:44.620Z,4.00
2022-08-11T02:57:23.480Z,7.50
2022-08-11T02:59:57.735Z,4.60
2022-08-11T03:02:53.606Z,5.40
2022-08-11T03:05:49.931Z,5.20
2022-08-11T03:08:31.523Z,4.40
2022-08-11T03:11:46.113Z,4.80
2022-08-11T03:14:37.842Z,4.80
2022-08-11T03:17:34.198Z,6.70
2022-08-11T03:20:19.494Z,6.40
2022-08-11T03:23:39.651Z,5.50
2022-08-11T03:26:38.722Z,6.10
2022-08-11T03:29:18.318Z,6.70
2022-08-11T03:32:02.534Z,8.40
2022-08-11T03:34:38.190Z,6.80
2022-08-11T03:37:59.457Z,5.80
2022-08-11T03:42:01.665Z,6.60
2022-08-11T03:44:38.154Z,5.30
2022-08-11T03:47:34.186Z,5.90
2022-08-11T03:50:23.359Z,6.30
2022-08-11T03:53:08.940Z,9.30
2022-08-11T03:56:06.607Z,7.50
2022-08-11T03:58:58.456Z,6.40
2022-08-11T04:02:17.159Z,5.10
2022-08-11T04:05:18.345Z,6.00
2022-08-11T04:08:10.006Z,6.70
2022-08-11T04:11:22.509Z,6.50
2022-08-11T04:14:58.153Z,5.00
2022-08-11T04:17:50.461Z,8.70
2022-08-11T04:20:34.529Z,5.90
2022-08-11T04:24:36.213Z,6.90
2022-08-11T04:27:37.028Z,6.30
2022-08-11T04:30:14.871Z,5.70
2022-08-11T04:32:58.887Z,6.60
2022-08-11T04:35:54.368Z,7.70
2022-08-11T04:39:04.326Z,7.10
2022-08-11T04:42:29.602Z,5.80
2022-08-11T04:45:51.164Z,9.60
2022-08-11T04:49:07.489Z,6.10
2022-08-11T04:52:25.540Z,8.90
2022-08-11T04:56:16.873Z,6.80
2022-08-11T04:59:56.063Z,8.40
2022-08-11T05:02:47.619Z,8.90
2022-08-11T05:05:56.279Z,8.40
2022-08-11T05:09:15.028Z,7.50
2022-08-11T05:12:42.815Z,7.60
2022-08-11T05:15:42.549Z,9.10
2022-08-11T05:18:38.321Z,8.00
2022-08-11T05:21:29.770Z,8.10
2022-08-11T05:24:39.947Z,7.90
2022-08-11T05:27:29.871Z,6.90
2022-08-11T05:30:34.324Z,7.60
2022-08-11T05:33:44.511Z,6.80
2022-08-11T05:36:48.228Z,6.10
2022-08-11T05:40:14.214Z,7.70
2022-08-11T05:43:12.281Z,8.50
2022-08-11T05:46:04.638Z,8.40
2022-08-11T05:48:54.106Z,8.30
2022-08-11T05:51:54.957Z,6.80
2022-08-11T05:54:46.763Z,6.80
2022-08-11T05:57:38.597Z,5.20
2022-08-11T06:00:19.629Z,8.20
2022-08-11T06:02:55.448Z,9.40
2022-08-11T06:05:43.686Z,8.60
2022-08-11T06:08:13.813Z,9.00
2022-08-11T06:10:45.459Z,8.30
2022-08-11T06:13:17.859Z,6.70
2022-08-11T06:15:49.288Z,8.90
2022-08-11T06:18:18.005Z,7.20
2022-08-11T06:20:52.403Z,6.90
2022-08-11T06:23:23.686Z,6.90
2022-08-11T06:25:53.428Z,7.80
2022-08-11T06:28:33.893Z,7.00
2022-08-11T06:31:11.783Z,8.50
2022-08-11T06:33:51.025Z,6.90
2022-08-11T06:36:34.469Z,9.20
2022-08-11T06:39:27.934Z,6.40
2022-08-11T06:42:07.232Z,5.10
2022-08-11T06:44:51.517Z,8.50
2022-08-11T06:47:20.623Z,9.40
2022-08-11T06:50:08.194Z,4.90
2022-08-11T06:52:38.660Z,6.30
2022-08-11T06:55:15.938Z,6.20
2022-08-11T06:58:19.752Z,6.00
2022-08-11T07:00:54.641Z,11.60
2022-08-11T07:03:23.635Z,7.30
2022-08-11T07:06:05.507Z,8.90
2022-08-11T07:09:38.921Z,6.50
2022-08-11T07:12:57.929Z,6.70
2022-08-11T07:16:10.376Z,7.50
2022-08-11T07:18:54.075Z,7.60
2022-08-11T07:22:02.465Z,6.20
2022-08-11T07:25:34.151Z,7.50
2022-08-11T07:28:28.081Z,5.70
2022-08-11T07:31:07.344Z,5.80
2022-08-11T07:34:08.052Z,5.80
2022-08-11T07:36:51.550Z,7.10
2022-08-11T07:39:26.671Z,5.90
2022-08-11T07:41:57.497Z,5.20
2022-08-11T07:44:34.299Z,6.60
2022-08-11T07:47:22.459Z,7.00
2022-08-11T07:50:11.515Z,9.10
2022-08-11T07:52:40.739Z,4.80
2022-08-11T07:55:17.702Z,6.80
2022-08-11T07:58:15.784Z,6.20
2022-08-11T08:01:21.839Z,5.50
2022-08-11T08:04:09.544Z,8.20
2022-08-11T08:06:58.357Z,7.50
2022-08-11T08:09:45.561Z,5.80
2022-08-11T08:12:33.661Z,5.50
2022-08-11T08:15:26.448Z,6.80
2022-08-11T08:18:09.953Z,5.60
2022-08-11T08:20:50.170Z,8.20
2022-08-11T08:23:33.891Z,7.00
2022-08-11T08:26:30.614Z,4.80
2022-08-11T08:29:20.762Z,8.80
2022-08-11T08:31:49.677Z,6.00
2022-08-11T08:34:18.762Z,5.20
2022-08-11T08:36:50.375Z,5.50
2022-08-11T08:39:22.978Z,5.80
2022-08-11T08:41:56.207Z,7.10
2022-08-11T08:44:42.225Z,8.60
2022-08-11T08:47:41.067Z,7.40
2022-08-11T08:50:19.391Z,7.10
2022-08-11T08:52:55.998Z,6.70
2022-08-11T08:55:23.664Z,7.00
2022-08-11T08:57:54.432Z,5.50
2022-08-11T09:00:23.799Z,4.30
2022-08-11T09:02:52.497Z,5.70
2022-08-11T09:05:20.170Z,7.60
2022-08-11T09:07:51.305Z,6.50
2022-08-11T09:10:20.556Z,9.80
2022-08-11T09:12:49.149Z,6.20
2022-08-11T09:15:19.847Z,8.60
2022-08-11T09:17:52.539Z,7.30
2022-08-11T09:20:21.035Z,6.90
2022-08-11T09:24:06.505Z,9.50
2022-08-11T09:26:19.603Z,6.00
2022-08-11T09:28:50.251Z,5.90
2022-08-11T09:31:18.122Z,7.90
2022-08-11T09:33:52.517Z,5.10
2022-08-11T09:36:39.737Z,6.10
2022-08-11T09:39:27.885Z,5.70
2022-08-11T09:42:03.111Z,8.20
2022-08-11T09:44:49.858Z,6.40
2022-08-11T09:47:26.276Z,8.10
2022-08-11T09:50:02.570Z,8.30
2022-08-11T09:52:52.181Z,5.60
2022-08-11T09:55:27.919Z,5.50
2022-08-11T09:58:42.492Z,7.00
2022-08-11T10:01:05.383Z,6.80
2022-08-11T10:03:40.586Z,6.10
2022-08-11T10:06:33.239Z,5.00
2022-08-11T10:09:06.397Z,6.10
2022-08-11T10:11:37.903Z,6.00
2022-08-11T10:14:33.295Z,7.80
2022-08-11T10:17:10.432Z,7.80
2022-08-11T10:19:38.793Z,5.30
2022-08-11T10:22:27.533Z,5.30
2022-08-11T10:25:19.595Z,8.70
2022-08-11T10:28:28.712Z,4.70
2022-08-11T10:31:12.683Z,5.80
2022-08-11T10:34:03.565Z,7.70
2022-08-11T10:37:05.460Z,5.70
2022-08-11T10:39:34.783Z,5.60
2022-08-11T10:42:41.382Z,5.60
2022-08-11T10:45:30.818Z,6.60
2022-08-11T10:47:59.076Z,6.10
2022-08-11T10:50:47.304Z,4.30
2022-08-11T10:53:36.395Z,7.80
2022-08-11T10:56:24.507Z,7.10
2022-08-11T10:58:52.920Z,5.40
2022-08-11T11:01:38.099Z,6.70
2022-08-11T11:04:24.447Z,5.20
2022-08-11T11:07:24.228Z,5.80
2022-08-11T11:10:04.570Z,6.20
2022-08-11T11:13:04.570Z,6.90
2022-08-11T11:15:55.168Z,5.60
2022-08-11T11:18:25.572Z,5.90
2022-08-11T11:21:15.661Z,7.10
2022-08-11T11:23:54.270Z,15.90
2022-08-11T11:26:43.703Z,7.20
2022-08-11T11:29:47.377Z,5.30
2022-08-11T11:32:31.247Z,8.80
2022-08-11T11:35:08.938Z,7.20
2022-08-11T11:37:38.293Z,5.50
2022-08-11T11:40:21.460Z,5.30
2022-08-11T11:42:59.462Z,7.10
2022-08-11T11:45:26.887Z,6.00
2022-08-11T11:47:59.320Z,7.30
2022-08-11T11:50:37.862Z,8.30
2022-08-11T11:53:09.281Z,6.30
2022-08-11T11:55:37.413Z,7.30
2022-08-11T11:58:24.718Z,6.00
2022-08-11T12:01:12.642Z,7.30
2022-08-11T12:03:41.531Z,6.00
2022-08-11T12:06:14.234Z,8.40
2022-08-11T12:08:43.909Z,8.50
2022-08-11T12:11:31.848Z,8.40
2022-08-11T12:14:10.251Z,6.70
2022-08-11T12:16:41.947Z,6.10
2022-08-11T12:19:14.339Z,7.30
2022-08-11T12:22:02.243Z,5.40
2022-08-11T12:24:51.174Z,5.80
2022-08-11T12:27:24.926Z,6.10
2022-08-11T12:29:59.690Z,7.50
2022-08-11T12:32:31.925Z,6.70
2022-08-11T12:34:59.712Z,7.40
2022-08-11T12:37:43.761Z,8.00
2022-08-11T12:41:11.763Z,6.10
2022-08-11T12:43:56.913Z,7.00
2022-08-11T12:46:31.926Z,7.00
2022-08-11T12:49:30.830Z,7.50
2022-08-11T12:52:14.626Z,6.50
2022-08-11T12:54:57.579Z,7.40
2022-08-11T12:58:01.413Z,7.80
2022-08-11T13:00:50.058Z,4.60
2022-08-11T13:03:39.555Z,6.30
2022-08-11T13:06:08.483Z,7.10
2022-08-11T13:08:39.254Z,9.20
2022-08-11T13:11:56.299Z,7.10
2022-08-11T13:14:15.605Z,6.90
2022-08-11T13:17:03.829Z,5.90
2022-08-11T13:19:32.436Z,5.30
2022-08-11T13:22:00.821Z,7.90
2022-08-11T13:24:28.921Z,5.50
2022-08-11T13:26:58.013Z,5.40
2022-08-11T13:29:28.202Z,8.10
2022-08-11T13:31:59.799Z,7.30
2022-08-11T13:34:31.287Z,7.70
2022-08-11T13:37:01.729Z,8.20
2022-08-11T13:39:32.242Z,5.80
2022-08-11T13:42:03.661Z,7.70
2022-08-11T13:44:34.683Z,7.20
2022-08-11T13:47:06.602Z,5.80
2022-08-11T13:49:40.433Z,8.50
2022-08-11T13:52:14.808Z,7.10
2022-08-11T13:54:44.294Z,6.70
2022-08-11T13:58:08.893Z,7.60
2022-08-11T14:00:23.629Z,10.10
2022-08-11T14:02:58.205Z,6.30
2022-08-11T14:05:52.144Z,9.90
2022-08-11T14:08:37.277Z,6.40
2022-08-11T14:12:23.070Z,8.30
2022-08-11T14:14:22.997Z,7.60
2022-08-11T14:16:56.803Z,9.20
2022-08-11T14:19:26.815Z,9.60
2022-08-11T14:22:08.669Z,7.80
2022-08-11T14:24:40.635Z,9.50
2022-08-11T14:28:25.926Z,9.30
2022-08-11T14:29:59.968Z,9.60
2022-08-11T14:32:27.709Z,10.60
2022-08-11T14:34:55.776Z,10.30
2022-08-11T14:37:26.921Z,10.80
2022-08-11T14:40:02.833Z,9.90
2022-08-11T14:42:49.293Z,12.00
2022-08-11T14:45:58.066Z,13.80
2022-08-11T14:48:24.000Z,10.90
2022-08-11T14:50:51.426Z,14.50
2022-08-11T14:53:22.534Z,14.20
2022-08-11T14:56:09.564Z,16.60
2022-08-11T14:58:37.835Z,14.70
2022-08-11T15:01:25.910Z,15.10
2022-08-11T15:04:25.038Z,16.70
2022-08-11T15:06:40.878Z,19.20
2022-08-11T15:09:09.285Z,18.90
2022-08-11T15:11:55.717Z,19.60
2022-08-11T15:14:42.410Z,18.50
2022-08-11T15:17:13.006Z,19.60
2022-08-11T15:20:03.150Z,20.20
2022-08-11T15:22:49.264Z,21.60
2022-08-11T15:25:16.514Z,22.50
2022-08-11T15:28:09.025Z,23.00
2022-08-11T15:30:57.416Z,26.00
2022-08-11T15:33:45.852Z,27.40
2022-08-11T15:36:33.772Z,28.30
2022-08-11T15:39:27.882Z,28.60
2022-08-11T15:42:18.741Z,27.80
2022-08-11T15:45:14.321Z,37.40
2022-08-11T15:48:05.424Z,30.60
2022-08-11T15:50:41.024Z,35.50
2022-08-11T15:53:56.924Z,38.30
2022-08-11T15:56:32.796Z,35.20
2022-08-11T15:59:42.932Z,39.50
2022-08-11T16:02:33.807Z,34.60
2022-08-11T16:05:06.837Z,40.50
2022-08-11T16:07:38.429Z,40.90
2022-08-11T16:10:19.362Z,37.60
2022-08-11T16:13:05.974Z,37.00
2022-08-11T16:15:56.952Z,35.00
2022-08-11T16:18:40.767Z,35.90
2022-08-11T16:21:33.643Z,36.80
2022-08-11T16:24:06.967Z,40.20
2022-08-11T16:27:11.084Z,32.20
2022-08-11T16:29:26.816Z,36.00
2022-08-11T16:32:15.029Z,37.00
2022-08-11T16:35:04.385Z,38.00
2022-08-11T16:37:53.651Z,37.50
2022-08-11T16:40:22.802Z,38.20
2022-08-11T16:43:11.783Z,37.60
2022-08-11T16:46:00.225Z,39.40
2022-08-11T16:48:35.756Z,39.90
2022-08-11T16:51:11.958Z,43.30
2022-08-11T16:53:47.390Z,37.60
2022-08-11T16:56:36.473Z,39.80
2022-08-11T16:59:17.598Z,38.50
2022-08-11T17:01:59.205Z,37.40
2022-08-11T17:05:10.634Z,37.10
2022-08-11T17:08:02.223Z,35.00
2022-08-11T17:10:58.930Z,30.90
2022-08-11T17:13:36.834Z,35.00
2022-08-11T17:16:07.964Z,39.30
2022-08-11T17:19:01.402Z,34.00
2022-08-11T17:21:34.793Z,35.10
2022-08-11T17:24:09.241Z,32.50
2022-08-11T17:26:57.199Z,34.90
2022-08-11T17:29:53.759Z,31.70
2022-08-11T17:33:01.400Z,28.00
2022-08-11T17:35:41.099Z,31.80
2022-08-11T17:38:14.633Z,27.60
2022-08-11T17:41:26.726Z,26.50
2022-08-11T17:44:14.836Z,20.30
2022-08-11T17:47:05.894Z,17.30
2022-08-11T17:49:38.088Z,14.40
2022-08-11T17:52:26.531Z,11.80
2022-08-11T17:55:15.413Z,10.30
2022-08-11T17:58:02.340Z,8.70
2022-08-11T18:00:31.967Z,8.70
2022-08-11T18:03:20.313Z,8.80
2022-08-11T18:05:49.364Z,9.70
2022-08-11T18:08:37.876Z,8.80
2022-08-11T18:12:11.132Z,7.40
2022-08-11T18:14:34.852Z,7.60
2022-08-11T18:17:20.497Z,8.00
2022-08-11T18:20:05.864Z,6.90
2022-08-11T18:22:59.340Z,7.30
2022-08-11T18:25:51.416Z,8.00
2022-08-11T18:28:45.178Z,6.90
2022-08-11T18:31:35.225Z,7.20
2022-08-11T18:34:28.701Z,6.50
2022-08-11T18:37:29.066Z,5.50
2022-08-11T18:40:30.082Z,7.80
2022-08-11T18:43:25.009Z,9.30
2022-08-11T18:46:25.240Z,7.20
2022-08-11T18:49:26.641Z,10.10
2022-08-11T18:52:25.643Z,9.30
2022-08-11T18:55:17.353Z,9.30
2022-08-11T18:58:07.323Z,10.10
2022-08-11T19:00:57.428Z,9.50
2022-08-11T19:03:48.603Z,8.90
2022-08-11T19:06:41.561Z,9.90
2022-08-11T19:09:35.145Z,8.20
2022-08-11T19:12:23.226Z,8.30
2022-08-11T19:15:11.394Z,7.40
2022-08-11T19:18:01.758Z,7.40
2022-08-11T19:20:52.540Z,10.90
2022-08-11T19:23:49.991Z,7.40
2022-08-11T19:26:37.346Z,6.70
2022-08-11T19:30:07.642Z,6.20
2022-08-11T19:32:33.802Z,6.20
2022-08-11T19:35:22.235Z,7.90
2022-08-11T19:38:10.110Z,9.40
2022-08-11T19:40:59.121Z,9.50
2022-08-11T19:43:47.978Z,6.70
2022-08-11T19:46:38.246Z,5.50
2022-08-11T19:49:25.095Z,6.20
2022-08-11T19:52:12.355Z,5.60
2022-08-11T19:55:00.389Z,6.30
2022-08-11T19:57:48.209Z,6.30
2022-08-11T20:00:38.714Z,5.20
2022-08-11T20:03:29.290Z,5.60
2022-08-11T20:06:20.414Z,6.90
2022-08-11T20:09:08.888Z,10.20
2022-08-11T20:12:06.830Z,6.50
2022-08-11T20:14:57.917Z,8.30
2022-08-11T20:17:50.425Z,7.80
2022-08-11T20:20:37.557Z,6.40
2022-08-11T20:23:28.315Z,7.70
2022-08-11T20:26:30.718Z,6.60
2022-08-11T20:29:19.631Z,5.70
2022-08-11T20:32:09.886Z,6.10
2022-08-11T20:34:58.221Z,7.50
2022-08-11T20:37:50.773Z,6.90
2022-08-11T20:40:42.907Z,6.40
2022-08-11T20:44:07.442Z,6.10
2022-08-11T20:46:43.892Z,8.70
2022-08-11T20:49:40.617Z,7.70
2022-08-11T20:52:37.558Z,7.40
2022-08-11T20:59:01.019Z,8.40
2022-08-11T21:01:42.377Z,9.80
2022-08-11T21:04:29.386Z,7.60
2022-08-11T21:07:22.825Z,7.80
2022-08-11T21:10:23.346Z,6.50
2022-08-11T21:13:24.119Z,7.60
2022-08-11T21:16:22.757Z,5.80
2022-08-11T21:19:59.718Z,5.80
2022-08-11T21:22:59.690Z,8.80
2022-08-11T21:26:05.003Z,10.30
2022-08-11T21:28:53.395Z,6.40
2022-08-11T21:31:40.317Z,6.60
2022-08-11T21:34:30.337Z,8.20
2022-08-11T21:37:20.110Z,6.80
2022-08-11T21:40:14.921Z,7.20
2022-08-11T21:43:05.803Z,7.80
2022-08-11T21:45:55.724Z,6.60
2022-08-11T21:48:45.719Z,6.90
2022-08-11T21:51:31.745Z,7.30
2022-08-11T21:54:20.100Z,7.20
2022-08-11T21:57:06.694Z,7.30
2022-08-11T22:00:11.808Z,6.80
2022-08-11T22:02:58.713Z,6.10
2022-08-11T22:05:49.930Z,6.40
2022-08-11T22:08:36.364Z,7.50
2022-08-11T22:11:31.736Z,6.20
2022-08-11T22:14:22.322Z,7.60
2022-08-11T22:17:08.948Z,6.00
2022-08-11T22:20:00.915Z,6.60
2022-08-11T22:22:53.044Z,7.00
2022-08-11T22:25:53.658Z,7.60
2022-08-11T22:28:41.065Z,6.60
2022-08-11T22:31:29.123Z,7.50
2022-08-11T22:34:15.574Z,7.50
2022-08-11T22:37:05.552Z,8.60
2022-08-11T22:39:59.820Z,7.50
2022-08-11T22:42:48.454Z,9.00
2022-08-11T22:45:34.645Z,6.90
2022-08-11T22:48:24.551Z,8.00
2022-08-11T22:51:11.917Z,10.30
2022-08-11T22:53:59.678Z,7.30
2022-08-11T22:56:49.146Z,8.00
2022-08-11T22:59:37.518Z,7.60
2022-08-11T23:02:25.709Z,8.10
2022-08-11T23:05:13.184Z,6.00
2022-08-11T23:08:00.718Z,6.90
2022-08-11T23:10:47.047Z,5.90
2022-08-11T23:13:34.151Z,5.50
2022-08-11T23:16:20.732Z,6.60
2022-08-11T23:19:08.959Z,7.30
2022-08-11T23:21:56.250Z,6.30
2022-08-11T23:24:44.751Z,8.20
2022-08-11T23:27:33.436Z,8.00
2022-08-11T23:30:20.775Z,7.00
2022-08-11T23:33:12.547Z,7.40
2022-08-11T23:36:05.388Z,8.80
2022-08-11T23:38:51.613Z,9.00
2022-08-11T23:41:37.008Z,7.70
2022-08-11T23:44:25.363Z,7.60
2022-08-11T23:47:16.176Z,6.60
2022-08-11T23:50:05.128Z,9.20
2022-08-11T23:52:53.991Z,5.90
2022-08-11T23:55:41.040Z,6.20
2022-08-11T23:58:28.673Z,7.10
